sensor_id;sensor_type;location;lat;lon;timestamp;P1;durP1;ratioP1;P2;durP2;ratioP2
65275;SDS011;51875;49.994;14.052;2023-08-12T00:01:09;5.97;;;5.38;;
65275;SDS011;51875;49.994;14.052;2023-08-12T00:02:25;9.57;;;5.22;;
65275;SDS011;51875;49.994;14.052;2023-08-12T00:03:40;9.80;;;5.03;;
65275;SDS011;51875;49.994;14.052;2023-08-12T00:04:57;6.05;;;5.30;;
65275;SDS011;51875;49.994;14.052;2023-08-12T00:06:12;6.28;;;4.88;;
65275;SDS011;51875;49.994;14.052;2023-08-12T00:07:28;8.65;;;5.40;;
65275;SDS011;51875;49.994;14.052;2023-08-12T00:08:44;6.30;;;4.70;;
65275;SDS011;51875;49.994;14.052;2023-08-12T00:10:01;5.22;;;4.65;;
65275;SDS011;51875;49.994;14.052;2023-08-12T00:11:19;7.63;;;4.63;;
65275;SDS011;51875;49.994;14.052;2023-08-12T00:12:35;7.13;;;5.15;;
65275;SDS011;51875;49.994;14.052;2023-08-12T00:13:51;5.70;;;5.05;;
65275;SDS011;51875;49.994;14.052;2023-08-12T00:15:07;7.18;;;5.00;;
65275;SDS011;51875;49.994;14.052;2023-08-12T00:16:23;6.38;;;4.90;;
65275;SDS011;51875;49.994;14.052;2023-08-12T00:17:39;7.70;;;5.07;;
65275;SDS011;51875;49.994;14.052;2023-08-12T00:18:56;6.00;;;5.10;;
65275;SDS011;51875;49.994;14.052;2023-08-12T00:20:11;6.68;;;5.22;;
65275;SDS011;51875;49.994;14.052;2023-08-12T00:21:27;7.05;;;5.30;;
65275;SDS011;51875;49.994;14.052;2023-08-12T00:22:43;7.10;;;5.45;;
65275;SDS011;51875;49.994;14.052;2023-08-12T00:23:59;6.97;;;5.10;;
65275;SDS011;51875;49.994;14.052;2023-08-12T00:25:14;6.22;;;5.32;;
65275;SDS011;51875;49.994;14.052;2023-08-12T00:26:30;8.23;;;5.57;;
65275;SDS011;51875;49.994;14.052;2023-08-12T00:27:46;7.00;;;5.38;;
65275;SDS011;51875;49.994;14.052;2023-08-12T00:29:01;10.57;;;5.88;;
65275;SDS011;51875;49.994;14.052;2023-08-12T00:30:17;10.57;;;5.18;;
65275;SDS011;51875;49.994;14.052;2023-08-12T00:31:33;8.13;;;5.25;;
65275;SDS011;51875;49.994;14.052;2023-08-12T00:32:49;8.52;;;5.07;;
65275;SDS011;51875;49.994;14.052;2023-08-12T00:34:04;6.38;;;4.95;;
65275;SDS011;51875;49.994;14.052;2023-08-12T00:35:20;8.45;;;5.32;;
65275;SDS011;51875;49.994;14.052;2023-08-12T00:36:35;5.35;;;4.85;;
65275;SDS011;51875;49.994;14.052;2023-08-12T00:37:52;8.30;;;5.45;;
65275;SDS011;51875;49.994;14.052;2023-08-12T00:39:07;12.23;;;5.38;;
65275;SDS011;51875;49.994;14.052;2023-08-12T00:40:23;6.22;;;5.07;;
65275;SDS011;51875;49.994;14.052;2023-08-12T00:41:39;5.50;;;4.90;;
65275;SDS011;51875;49.994;14.052;2023-08-12T00:42:55;6.25;;;4.97;;
65275;SDS011;51875;49.994;14.052;2023-08-12T00:44:10;7.30;;;4.97;;
65275;SDS011;51875;49.994;14.052;2023-08-12T00:45:26;9.23;;;5.40;;
65275;SDS011;51875;49.994;14.052;2023-08-12T00:46:41;9.63;;;5.50;;
65275;SDS011;51875;49.994;14.052;2023-08-12T00:47:58;5.70;;;5.10;;
65275;SDS011;51875;49.994;14.052;2023-08-12T00:49:13;7.72;;;5.03;;
65275;SDS011;51875;49.994;14.052;2023-08-12T00:50:30;5.60;;;5.00;;
65275;SDS011;51875;49.994;14.052;2023-08-12T00:51:47;8.35;;;5.47;;
65275;SDS011;51875;49.994;14.052;2023-08-12T00:53:04;7.65;;;6.00;;
65275;SDS011;51875;49.994;14.052;2023-08-12T00:54:21;9.65;;;5.88;;
65275;SDS011;51875;49.994;14.052;2023-08-12T00:55:37;8.15;;;5.80;;
65275;SDS011;51875;49.994;14.052;2023-08-12T00:56:53;7.00;;;5.35;;
65275;SDS011;51875;49.994;14.052;2023-08-12T00:58:09;13.95;;;5.80;;
65275;SDS011;51875;49.994;14.052;2023-08-12T00:59:25;7.13;;;5.20;;
65275;SDS011;51875;49.994;14.052;2023-08-12T01:00:42;9.30;;;4.68;;
65275;SDS011;51875;49.994;14.052;2023-08-12T01:01:58;5.93;;;5.32;;
65275;SDS011;51875;49.994;14.052;2023-08-12T01:03:13;6.65;;;5.07;;
65275;SDS011;51875;49.994;14.052;2023-08-12T01:04:29;7.00;;;5.25;;
65275;SDS011;51875;49.994;14.052;2023-08-12T01:05:44;7.43;;;5.80;;
65275;SDS011;51875;49.994;14.052;2023-08-12T01:07:02;9.60;;;5.53;;
65275;SDS011;51875;49.994;14.052;2023-08-12T01:08:18;6.63;;;5.20;;
65275;SDS011;51875;49.994;14.052;2023-08-12T01:09:34;6.22;;;4.70;;
65275;SDS011;51875;49.994;14.052;2023-08-12T01:10:50;8.40;;;5.55;;
65275;SDS011;51875;49.994;14.052;2023-08-12T01:12:18;6.82;;;5.63;;
65275;SDS011;51875;49.994;14.052;2023-08-12T01:15:48;6.95;;;5.38;;
65275;SDS011;51875;49.994;14.052;2023-08-12T01:17:08;7.47;;;5.18;;
65275;SDS011;51875;49.994;14.052;2023-08-12T01:18:26;10.15;;;5.22;;
65275;SDS011;51875;49.994;14.052;2023-08-12T01:19:43;7.63;;;5.20;;
65275;SDS011;51875;49.994;14.052;2023-08-12T01:21:00;7.60;;;5.40;;
65275;SDS011;51875;49.994;14.052;2023-08-12T01:22:19;5.57;;;4.90;;
65275;SDS011;51875;49.994;14.052;2023-08-12T01:23:36;5.85;;;5.22;;
65275;SDS011;51875;49.994;14.052;2023-08-12T01:24:51;6.60;;;4.80;;
65275;SDS011;51875;49.994;14.052;2023-08-12T01:26:07;7.68;;;5.85;;
65275;SDS011;51875;49.994;14.052;2023-08-12T01:27:23;7.93;;;5.63;;
65275;SDS011;51875;49.994;14.052;2023-08-12T01:28:39;7.63;;;5.57;;
65275;SDS011;51875;49.994;14.052;2023-08-12T01:29:54;6.13;;;5.00;;
65275;SDS011;51875;49.994;14.052;2023-08-12T01:31:23;9.60;;;5.60;;
65275;SDS011;51875;49.994;14.052;2023-08-12T01:32:53;6.95;;;4.97;;
65275;SDS011;51875;49.994;14.052;2023-08-12T01:34:20;9.65;;;5.50;;
65275;SDS011;51875;49.994;14.052;2023-08-12T01:35:40;7.38;;;5.72;;
65275;SDS011;51875;49.994;14.052;2023-08-12T01:36:58;6.55;;;5.57;;
65275;SDS011;51875;49.994;14.052;2023-08-12T01:38:16;7.40;;;5.97;;
65275;SDS011;51875;49.994;14.052;2023-08-12T01:39:34;7.57;;;5.68;;
65275;SDS011;51875;49.994;14.052;2023-08-12T01:40:51;8.30;;;5.30;;
65275;SDS011;51875;49.994;14.052;2023-08-12T01:42:07;9.93;;;5.72;;
65275;SDS011;51875;49.994;14.052;2023-08-12T01:43:23;6.53;;;5.57;;
65275;SDS011;51875;49.994;14.052;2023-08-12T01:44:40;8.05;;;5.70;;
65275;SDS011;51875;49.994;14.052;2023-08-12T01:45:55;7.03;;;5.53;;
65275;SDS011;51875;49.994;14.052;2023-08-12T01:47:11;6.85;;;5.65;;
65275;SDS011;51875;49.994;14.052;2023-08-12T01:48:27;8.02;;;5.60;;
65275;SDS011;51875;49.994;14.052;2023-08-12T01:49:42;9.02;;;5.65;;
65275;SDS011;51875;49.994;14.052;2023-08-12T01:50:58;9.18;;;5.60;;
65275;SDS011;51875;49.994;14.052;2023-08-12T01:52:14;6.45;;;5.13;;
65275;SDS011;51875;49.994;14.052;2023-08-12T01:53:29;6.30;;;5.18;;
65275;SDS011;51875;49.994;14.052;2023-08-12T01:54:44;8.73;;;5.65;;
65275;SDS011;51875;49.994;14.052;2023-08-12T01:56:00;6.63;;;5.32;;
65275;SDS011;51875;49.994;14.052;2023-08-12T01:57:16;6.35;;;5.47;;
65275;SDS011;51875;49.994;14.052;2023-08-12T01:58:32;8.00;;;5.40;;
65275;SDS011;51875;49.994;14.052;2023-08-12T01:59:47;9.18;;;5.47;;
65275;SDS011;51875;49.994;14.052;2023-08-12T02:01:03;12.60;;;5.20;;
65275;SDS011;51875;49.994;14.052;2023-08-12T02:02:18;7.03;;;5.45;;
65275;SDS011;51875;49.994;14.052;2023-08-12T02:03:34;6.50;;;5.53;;
65275;SDS011;51875;49.994;14.052;2023-08-12T02:04:50;7.32;;;5.85;;
65275;SDS011;51875;49.994;14.052;2023-08-12T02:06:05;7.85;;;6.07;;
65275;SDS011;51875;49.994;14.052;2023-08-12T02:07:21;8.82;;;6.47;;
65275;SDS011;51875;49.994;14.052;2023-08-12T02:08:37;7.72;;;5.80;;
65275;SDS011;51875;49.994;14.052;2023-08-12T02:09:52;9.40;;;6.68;;
65275;SDS011;51875;49.994;14.052;2023-08-12T02:11:08;8.38;;;6.03;;
65275;SDS011;51875;49.994;14.052;2023-08-12T02:12:23;7.90;;;6.40;;
65275;SDS011;51875;49.994;14.052;2023-08-12T02:13:39;9.85;;;6.65;;
65275;SDS011;51875;49.994;14.052;2023-08-12T02:14:54;8.52;;;6.13;;
65275;SDS011;51875;49.994;14.052;2023-08-12T02:16:10;8.02;;;6.57;;
65275;SDS011;51875;49.994;14.052;2023-08-12T02:17:25;9.07;;;7.22;;
65275;SDS011;51875;49.994;14.052;2023-08-12T02:18:41;12.50;;;6.53;;
65275;SDS011;51875;49.994;14.052;2023-08-12T02:19:56;8.48;;;6.30;;
65275;SDS011;51875;49.994;14.052;2023-08-12T02:21:12;11.85;;;6.93;;
65275;SDS011;51875;49.994;14.052;2023-08-12T02:22:28;8.55;;;6.75;;
65275;SDS011;51875;49.994;14.052;2023-08-12T02:23:44;9.02;;;6.82;;
65275;SDS011;51875;49.994;14.052;2023-08-12T02:24:59;8.55;;;6.65;;
65275;SDS011;51875;49.994;14.052;2023-08-12T02:26:15;8.50;;;6.22;;
65275;SDS011;51875;49.994;14.052;2023-08-12T02:27:31;10.25;;;6.10;;
65275;SDS011;51875;49.994;14.052;2023-08-12T02:28:46;8.48;;;6.13;;
65275;SDS011;51875;49.994;14.052;2023-08-12T02:30:02;7.55;;;5.32;;
65275;SDS011;51875;49.994;14.052;2023-08-12T02:31:18;7.25;;;5.40;;
65275;SDS011;51875;49.994;14.052;2023-08-12T02:32:34;8.80;;;5.68;;
65275;SDS011;51875;49.994;14.052;2023-08-12T02:33:49;7.43;;;5.82;;
65275;SDS011;51875;49.994;14.052;2023-08-12T02:35:05;8.05;;;5.93;;
65275;SDS011;51875;49.994;14.052;2023-08-12T02:36:21;5.90;;;5.28;;
65275;SDS011;51875;49.994;14.052;2023-08-12T02:37:37;8.60;;;6.10;;
65275;SDS011;51875;49.994;14.052;2023-08-12T02:38:53;6.28;;;5.32;;
65275;SDS011;51875;49.994;14.052;2023-08-12T02:40:08;6.53;;;5.82;;
65275;SDS011;51875;49.994;14.052;2023-08-12T02:41:25;10.20;;;5.55;;
65275;SDS011;51875;49.994;14.052;2023-08-12T02:42:41;6.88;;;5.40;;
65275;SDS011;51875;49.994;14.052;2023-08-12T02:43:57;7.45;;;5.88;;
65275;SDS011;51875;49.994;14.052;2023-08-12T02:45:12;8.10;;;5.03;;
65275;SDS011;51875;49.994;14.052;2023-08-12T02:46:28;6.63;;;5.40;;
65275;SDS011;51875;49.994;14.052;2023-08-12T02:47:46;7.03;;;5.50;;
65275;SDS011;51875;49.994;14.052;2023-08-12T02:49:02;9.63;;;5.10;;
65275;SDS011;51875;49.994;14.052;2023-08-12T02:50:17;6.57;;;5.18;;
65275;SDS011;51875;49.994;14.052;2023-08-12T02:51:33;5.90;;;4.85;;
65275;SDS011;51875;49.994;14.052;2023-08-12T02:52:48;7.85;;;5.25;;
65275;SDS011;51875;49.994;14.052;2023-08-12T02:54:04;8.77;;;5.43;;
65275;SDS011;51875;49.994;14.052;2023-08-12T02:55:20;7.63;;;5.53;;
65275;SDS011;51875;49.994;14.052;2023-08-12T02:56:36;7.75;;;5.60;;
65275;SDS011;51875;49.994;14.052;2023-08-12T02:57:51;6.15;;;5.15;;
65275;SDS011;51875;49.994;14.052;2023-08-12T02:59:07;6.07;;;5.05;;
65275;SDS011;51875;49.994;14.052;2023-08-12T03:00:22;6.78;;;5.07;;
65275;SDS011;51875;49.994;14.052;2023-08-12T03:01:40;6.13;;;4.93;;
65275;SDS011;51875;49.994;14.052;2023-08-12T03:02:56;10.27;;;5.78;;
65275;SDS011;51875;49.994;14.052;2023-08-12T03:04:12;7.32;;;5.55;;
65275;SDS011;51875;49.994;14.052;2023-08-12T03:05:28;8.93;;;6.28;;
65275;SDS011;51875;49.994;14.052;2023-08-12T03:06:43;9.32;;;5.88;;
65275;SDS011;51875;49.994;14.052;2023-08-12T03:07:59;11.98;;;6.22;;
65275;SDS011;51875;49.994;14.052;2023-08-12T03:09:16;7.80;;;5.80;;
65275;SDS011;51875;49.994;14.052;2023-08-12T03:10:34;9.23;;;6.00;;
65275;SDS011;51875;49.994;14.052;2023-08-12T03:11:49;8.07;;;6.07;;
65275;SDS011;51875;49.994;14.052;2023-08-12T03:13:05;8.30;;;5.75;;
65275;SDS011;51875;49.994;14.052;2023-08-12T03:14:20;7.22;;;5.78;;
65275;SDS011;51875;49.994;14.052;2023-08-12T03:15:39;7.60;;;5.82;;
65275;SDS011;51875;49.994;14.052;2023-08-12T03:16:58;8.18;;;5.72;;
65275;SDS011;51875;49.994;14.052;2023-08-12T03:18:13;6.72;;;5.95;;
65275;SDS011;51875;49.994;14.052;2023-08-12T03:19:29;7.63;;;5.50;;
65275;SDS011;51875;49.994;14.052;2023-08-12T03:20:44;6.95;;;5.75;;
65275;SDS011;51875;49.994;14.052;2023-08-12T03:22:00;8.20;;;6.03;;
65275;SDS011;51875;49.994;14.052;2023-08-12T03:23:15;8.95;;;6.32;;
65275;SDS011;51875;49.994;14.052;2023-08-12T03:24:31;7.53;;;6.10;;
65275;SDS011;51875;49.994;14.052;2023-08-12T03:25:47;7.07;;;5.80;;
65275;SDS011;51875;49.994;14.052;2023-08-12T03:27:03;8.27;;;5.68;;
65275;SDS011;51875;49.994;14.052;2023-08-12T03:28:18;7.30;;;5.47;;
65275;SDS011;51875;49.994;14.052;2023-08-12T03:29:34;11.45;;;5.90;;
65275;SDS011;51875;49.994;14.052;2023-08-12T03:30:51;7.38;;;5.90;;
65275;SDS011;51875;49.994;14.052;2023-08-12T03:32:07;7.88;;;5.82;;
65275;SDS011;51875;49.994;14.052;2023-08-12T03:33:22;6.15;;;5.55;;
65275;SDS011;51875;49.994;14.052;2023-08-12T03:34:38;6.97;;;5.47;;
65275;SDS011;51875;49.994;14.052;2023-08-12T03:35:54;7.82;;;5.60;;
65275;SDS011;51875;49.994;14.052;2023-08-12T03:37:09;8.70;;;5.95;;
65275;SDS011;51875;49.994;14.052;2023-08-12T03:38:25;7.63;;;5.63;;
65275;SDS011;51875;49.994;14.052;2023-08-12T03:39:40;5.93;;;5.07;;
65275;SDS011;51875;49.994;14.052;2023-08-12T03:40:56;6.13;;;5.03;;
65275;SDS011;51875;49.994;14.052;2023-08-12T03:42:11;5.72;;;5.10;;
65275;SDS011;51875;49.994;14.052;2023-08-12T03:43:27;6.75;;;5.50;;
65275;SDS011;51875;49.994;14.052;2023-08-12T03:44:43;6.90;;;5.45;;
65275;SDS011;51875;49.994;14.052;2023-08-12T03:45:59;7.60;;;6.20;;
65275;SDS011;51875;49.994;14.052;2023-08-12T03:47:14;7.70;;;5.45;;
65275;SDS011;51875;49.994;14.052;2023-08-12T03:48:30;9.13;;;5.97;;
65275;SDS011;51875;49.994;14.052;2023-08-12T03:49:45;7.32;;;5.40;;
65275;SDS011;51875;49.994;14.052;2023-08-12T03:51:01;6.28;;;5.20;;
65275;SDS011;51875;49.994;14.052;2023-08-12T03:52:16;7.15;;;5.45;;
65275;SDS011;51875;49.994;14.052;2023-08-12T03:53:32;6.18;;;5.25;;
65275;SDS011;51875;49.994;14.052;2023-08-12T03:54:48;6.15;;;5.28;;
65275;SDS011;51875;49.994;14.052;2023-08-12T03:56:03;9.30;;;5.43;;
65275;SDS011;51875;49.994;14.052;2023-08-12T03:57:19;8.00;;;5.13;;
65275;SDS011;51875;49.994;14.052;2023-08-12T03:58:34;5.88;;;5.25;;
65275;SDS011;51875;49.994;14.052;2023-08-12T03:59:51;7.93;;;5.50;;
65275;SDS011;51875;49.994;14.052;2023-08-12T04:01:06;6.72;;;5.18;;
65275;SDS011;51875;49.994;14.052;2023-08-12T04:02:22;6.18;;;5.05;;
65275;SDS011;51875;49.994;14.052;2023-08-12T04:03:37;6.80;;;5.25;;
65275;SDS011;51875;49.994;14.052;2023-08-12T04:04:53;8.18;;;5.22;;
65275;SDS011;51875;49.994;14.052;2023-08-12T04:06:08;7.25;;;4.80;;
65275;SDS011;51875;49.994;14.052;2023-08-12T04:07:24;5.97;;;5.25;;
65275;SDS011;51875;49.994;14.052;2023-08-12T04:08:39;7.05;;;5.20;;
65275;SDS011;51875;49.994;14.052;2023-08-12T04:09:55;8.55;;;5.32;;
65275;SDS011;51875;49.994;14.052;2023-08-12T04:11:11;9.98;;;5.78;;
65275;SDS011;51875;49.994;14.052;2023-08-12T04:12:26;7.40;;;5.85;;
65275;SDS011;51875;49.994;14.052;2023-08-12T04:13:42;10.18;;;5.85;;
65275;SDS011;51875;49.994;14.052;2023-08-12T04:14:57;8.60;;;6.22;;
65275;SDS011;51875;49.994;14.052;2023-08-12T04:16:13;7.93;;;6.32;;
65275;SDS011;51875;49.994;14.052;2023-08-12T04:17:28;9.00;;;6.03;;
65275;SDS011;51875;49.994;14.052;2023-08-12T04:18:44;7.10;;;5.90;;
65275;SDS011;51875;49.994;14.052;2023-08-12T04:20:00;7.47;;;6.07;;
65275;SDS011;51875;49.994;14.052;2023-08-12T04:21:15;8.27;;;6.80;;
65275;SDS011;51875;49.994;14.052;2023-08-12T04:22:31;7.25;;;6.20;;
65275;SDS011;51875;49.994;14.052;2023-08-12T04:23:46;7.38;;;6.07;;
65275;SDS011;51875;49.994;14.052;2023-08-12T04:25:02;9.85;;;6.25;;
65275;SDS011;51875;49.994;14.052;2023-08-12T04:26:18;8.57;;;5.82;;
65275;SDS011;51875;49.994;14.052;2023-08-12T04:27:33;7.88;;;5.78;;
65275;SDS011;51875;49.994;14.052;2023-08-12T04:28:49;8.65;;;6.32;;
65275;SDS011;51875;49.994;14.052;2023-08-12T04:30:05;6.57;;;5.88;;
65275;SDS011;51875;49.994;14.052;2023-08-12T04:31:21;8.55;;;6.00;;
65275;SDS011;51875;49.994;14.052;2023-08-12T04:32:37;8.90;;;5.30;;
65275;SDS011;51875;49.994;14.052;2023-08-12T04:33:52;8.43;;;5.80;;
65275;SDS011;51875;49.994;14.052;2023-08-12T04:35:08;9.50;;;5.45;;
65275;SDS011;51875;49.994;14.052;2023-08-12T04:36:24;8.63;;;6.78;;
65275;SDS011;51875;49.994;14.052;2023-08-12T04:37:39;7.97;;;6.80;;
65275;SDS011;51875;49.994;14.052;2023-08-12T04:38:54;9.07;;;6.35;;
65275;SDS011;51875;49.994;14.052;2023-08-12T04:40:10;8.52;;;6.47;;
65275;SDS011;51875;49.994;14.052;2023-08-12T04:41:26;8.68;;;6.45;;
65275;SDS011;51875;49.994;14.052;2023-08-12T04:42:42;8.73;;;6.43;;
65275;SDS011;51875;49.994;14.052;2023-08-12T04:43:57;8.77;;;6.53;;
65275;SDS011;51875;49.994;14.052;2023-08-12T04:45:13;8.40;;;5.90;;
65275;SDS011;51875;49.994;14.052;2023-08-12T04:46:28;8.25;;;6.25;;
65275;SDS011;51875;49.994;14.052;2023-08-12T04:47:45;9.85;;;7.00;;
65275;SDS011;51875;49.994;14.052;2023-08-12T04:49:01;11.20;;;7.50;;
65275;SDS011;51875;49.994;14.052;2023-08-12T04:50:16;12.25;;;8.10;;
65275;SDS011;51875;49.994;14.052;2023-08-12T04:51:32;11.02;;;7.57;;
65275;SDS011;51875;49.994;14.052;2023-08-12T04:52:49;16.67;;;8.75;;
65275;SDS011;51875;49.994;14.052;2023-08-12T04:54:04;15.20;;;9.05;;
65275;SDS011;51875;49.994;14.052;2023-08-12T04:55:20;17.70;;;9.23;;
65275;SDS011;51875;49.994;14.052;2023-08-12T04:56:35;14.57;;;9.50;;
65275;SDS011;51875;49.994;14.052;2023-08-12T04:57:51;11.43;;;8.00;;
65275;SDS011;51875;49.994;14.052;2023-08-12T04:59:06;14.50;;;8.93;;
65275;SDS011;51875;49.994;14.052;2023-08-12T05:00:23;11.52;;;7.75;;
65275;SDS011;51875;49.994;14.052;2023-08-12T05:01:39;13.05;;;7.05;;
65275;SDS011;51875;49.994;14.052;2023-08-12T05:02:54;9.80;;;7.13;;
65275;SDS011;51875;49.994;14.052;2023-08-12T05:04:10;11.10;;;7.72;;
65275;SDS011;51875;49.994;14.052;2023-08-12T05:05:26;12.32;;;7.78;;
65275;SDS011;51875;49.994;14.052;2023-08-12T05:06:43;8.73;;;7.35;;
65275;SDS011;51875;49.994;14.052;2023-08-12T05:07:58;12.30;;;7.38;;
65275;SDS011;51875;49.994;14.052;2023-08-12T05:09:14;13.32;;;7.28;;
65275;SDS011;51875;49.994;14.052;2023-08-12T05:10:30;10.00;;;7.35;;
65275;SDS011;51875;49.994;14.052;2023-08-12T05:11:45;11.27;;;6.03;;
65275;SDS011;51875;49.994;14.052;2023-08-12T05:13:01;8.02;;;6.22;;
65275;SDS011;51875;49.994;14.052;2023-08-12T05:14:17;9.70;;;7.07;;
65275;SDS011;51875;49.994;14.052;2023-08-12T05:15:33;11.70;;;6.40;;
65275;SDS011;51875;49.994;14.052;2023-08-12T05:16:51;8.52;;;6.50;;
65275;SDS011;51875;49.994;14.052;2023-08-12T05:18:07;9.38;;;6.43;;
65275;SDS011;51875;49.994;14.052;2023-08-12T05:19:22;13.73;;;6.65;;
65275;SDS011;51875;49.994;14.052;2023-08-12T05:20:39;9.85;;;7.05;;
65275;SDS011;51875;49.994;14.052;2023-08-12T05:21:57;8.70;;;6.10;;
65275;SDS011;51875;49.994;14.052;2023-08-12T05:23:13;9.23;;;6.80;;
65275;SDS011;51875;49.994;14.052;2023-08-12T05:24:29;9.70;;;6.47;;
65275;SDS011;51875;49.994;14.052;2023-08-12T05:25:44;7.60;;;6.45;;
65275;SDS011;51875;49.994;14.052;2023-08-12T05:27:00;10.40;;;6.78;;
65275;SDS011;51875;49.994;14.052;2023-08-12T05:28:16;9.10;;;6.85;;
65275;SDS011;51875;49.994;14.052;2023-08-12T05:29:31;11.57;;;7.20;;
65275;SDS011;51875;49.994;14.052;2023-08-12T05:30:47;9.68;;;7.18;;
65275;SDS011;51875;49.994;14.052;2023-08-12T05:32:03;9.38;;;6.90;;
65275;SDS011;51875;49.994;14.052;2023-08-12T05:33:19;9.93;;;6.75;;
65275;SDS011;51875;49.994;14.052;2023-08-12T05:34:35;11.55;;;7.70;;
65275;SDS011;51875;49.994;14.052;2023-08-12T05:35:51;7.70;;;6.80;;
65275;SDS011;51875;49.994;14.052;2023-08-12T05:37:07;9.30;;;6.78;;
65275;SDS011;51875;49.994;14.052;2023-08-12T05:38:24;8.20;;;6.85;;
65275;SDS011;51875;49.994;14.052;2023-08-12T05:39:39;8.90;;;6.72;;
65275;SDS011;51875;49.994;14.052;2023-08-12T05:40:55;7.93;;;6.70;;
65275;SDS011;51875;49.994;14.052;2023-08-12T05:42:10;11.70;;;7.55;;
65275;SDS011;51875;49.994;14.052;2023-08-12T05:43:26;9.82;;;7.40;;
65275;SDS011;51875;49.994;14.052;2023-08-12T05:44:42;8.82;;;6.78;;
65275;SDS011;51875;49.994;14.052;2023-08-12T05:45:57;8.73;;;6.85;;
65275;SDS011;51875;49.994;14.052;2023-08-12T05:47:13;8.18;;;6.82;;
65275;SDS011;51875;49.994;14.052;2023-08-12T05:48:28;10.77;;;7.18;;
65275;SDS011;51875;49.994;14.052;2023-08-12T05:49:44;8.90;;;7.03;;
65275;SDS011;51875;49.994;14.052;2023-08-12T05:50:59;12.45;;;7.05;;
65275;SDS011;51875;49.994;14.052;2023-08-12T05:52:15;9.05;;;7.18;;
65275;SDS011;51875;49.994;14.052;2023-08-12T05:53:31;9.95;;;7.43;;
65275;SDS011;51875;49.994;14.052;2023-08-12T05:54:47;9.00;;;7.32;;
65275;SDS011;51875;49.994;14.052;2023-08-12T05:56:02;7.50;;;6.70;;
65275;SDS011;51875;49.994;14.052;2023-08-12T05:57:18;9.20;;;6.80;;
65275;SDS011;51875;49.994;14.052;2023-08-12T05:58:34;9.80;;;7.13;;
65275;SDS011;51875;49.994;14.052;2023-08-12T05:59:49;9.50;;;7.32;;
65275;SDS011;51875;49.994;14.052;2023-08-12T06:01:05;9.68;;;7.10;;
65275;SDS011;51875;49.994;14.052;2023-08-12T06:02:21;9.35;;;7.10;;
65275;SDS011;51875;49.994;14.052;2023-08-12T06:03:37;11.05;;;7.05;;
65275;SDS011;51875;49.994;14.052;2023-08-12T06:04:53;9.70;;;7.00;;
65275;SDS011;51875;49.994;14.052;2023-08-12T06:06:08;13.20;;;7.35;;
65275;SDS011;51875;49.994;14.052;2023-08-12T06:07:24;9.73;;;7.40;;
65275;SDS011;51875;49.994;14.052;2023-08-12T06:08:40;9.43;;;7.18;;
65275;SDS011;51875;49.994;14.052;2023-08-12T06:09:55;8.98;;;7.25;;
65275;SDS011;51875;49.994;14.052;2023-08-12T06:11:11;12.05;;;7.70;;
65275;SDS011;51875;49.994;14.052;2023-08-12T06:12:27;7.97;;;6.60;;
65275;SDS011;51875;49.994;14.052;2023-08-12T06:13:42;8.70;;;6.80;;
65275;SDS011;51875;49.994;14.052;2023-08-12T06:14:58;7.43;;;6.57;;
65275;SDS011;51875;49.994;14.052;2023-08-12T06:16:13;9.55;;;6.30;;
65275;SDS011;51875;49.994;14.052;2023-08-12T06:17:29;7.68;;;6.80;;
65275;SDS011;51875;49.994;14.052;2023-08-12T06:18:45;10.15;;;6.55;;
65275;SDS011;51875;49.994;14.052;2023-08-12T06:20:00;7.38;;;6.57;;
65275;SDS011;51875;49.994;14.052;2023-08-12T06:21:16;12.55;;;6.50;;
65275;SDS011;51875;49.994;14.052;2023-08-12T06:22:31;8.55;;;6.60;;
65275;SDS011;51875;49.994;14.052;2023-08-12T06:23:47;8.70;;;6.80;;
65275;SDS011;51875;49.994;14.052;2023-08-12T06:25:02;11.00;;;7.07;;
65275;SDS011;51875;49.994;14.052;2023-08-12T06:26:18;9.95;;;7.38;;
65275;SDS011;51875;49.994;14.052;2023-08-12T06:27:34;9.48;;;6.50;;
65275;SDS011;51875;49.994;14.052;2023-08-12T06:28:49;7.95;;;6.10;;
65275;SDS011;51875;49.994;14.052;2023-08-12T06:30:05;9.35;;;6.60;;
65275;SDS011;51875;49.994;14.052;2023-08-12T06:31:21;8.07;;;6.50;;
65275;SDS011;51875;49.994;14.052;2023-08-12T06:32:37;9.52;;;6.65;;
65275;SDS011;51875;49.994;14.052;2023-08-12T06:33:52;8.02;;;6.28;;
65275;SDS011;51875;49.994;14.052;2023-08-12T06:35:08;6.85;;;6.15;;
65275;SDS011;51875;49.994;14.052;2023-08-12T06:36:24;8.02;;;6.38;;
65275;SDS011;51875;49.994;14.052;2023-08-12T06:37:39;13.60;;;6.60;;
65275;SDS011;51875;49.994;14.052;2023-08-12T06:38:55;9.93;;;5.95;;
65275;SDS011;51875;49.994;14.052;2023-08-12T06:40:11;9.27;;;6.28;;
65275;SDS011;51875;49.994;14.052;2023-08-12T06:41:26;7.13;;;6.28;;
65275;SDS011;51875;49.994;14.052;2023-08-12T06:42:42;7.75;;;6.22;;
65275;SDS011;51875;49.994;14.052;2023-08-12T06:43:57;6.47;;;5.75;;
65275;SDS011;51875;49.994;14.052;2023-08-12T06:45:13;7.68;;;6.15;;
65275;SDS011;51875;49.994;14.052;2023-08-12T06:46:28;14.13;;;6.85;;
65275;SDS011;51875;49.994;14.052;2023-08-12T06:47:46;7.10;;;5.78;;
65275;SDS011;51875;49.994;14.052;2023-08-12T06:49:01;10.38;;;6.07;;
65275;SDS011;51875;49.994;14.052;2023-08-12T06:50:17;5.65;;;5.10;;
65275;SDS011;51875;49.994;14.052;2023-08-12T06:51:32;7.65;;;5.13;;
65275;SDS011;51875;49.994;14.052;2023-08-12T06:52:48;6.35;;;5.03;;
65275;SDS011;51875;49.994;14.052;2023-08-12T06:54:04;6.15;;;5.07;;
65275;SDS011;51875;49.994;14.052;2023-08-12T06:55:20;5.47;;;4.97;;
65275;SDS011;51875;49.994;14.052;2023-08-12T06:56:35;8.02;;;4.93;;
65275;SDS011;51875;49.994;14.052;2023-08-12T06:57:50;6.65;;;4.95;;
65275;SDS011;51875;49.994;14.052;2023-08-12T06:59:06;6.00;;;4.80;;
65275;SDS011;51875;49.994;14.052;2023-08-12T07:00:22;6.35;;;4.95;;
65275;SDS011;51875;49.994;14.052;2023-08-12T07:01:37;6.38;;;4.75;;
65275;SDS011;51875;49.994;14.052;2023-08-12T07:02:53;6.38;;;4.97;;
65275;SDS011;51875;49.994;14.052;2023-08-12T07:04:08;6.90;;;5.10;;
65275;SDS011;51875;49.994;14.052;2023-08-12T07:05:24;6.63;;;4.90;;
65275;SDS011;51875;49.994;14.052;2023-08-12T07:06:39;5.82;;;4.72;;
65275;SDS011;51875;49.994;14.052;2023-08-12T07:07:55;5.32;;;4.72;;
65275;SDS011;51875;49.994;14.052;2023-08-12T07:09:10;5.97;;;4.22;;
65275;SDS011;51875;49.994;14.052;2023-08-12T07:10:26;5.57;;;4.65;;
65275;SDS011;51875;49.994;14.052;2023-08-12T07:11:41;6.63;;;4.82;;
65275;SDS011;51875;49.994;14.052;2023-08-12T07:12:57;5.43;;;4.20;;
65275;SDS011;51875;49.994;14.052;2023-08-12T07:14:13;4.70;;;4.05;;
65275;SDS011;51875;49.994;14.052;2023-08-12T07:15:28;4.35;;;3.95;;
65275;SDS011;51875;49.994;14.052;2023-08-12T07:16:44;4.28;;;3.88;;
65275;SDS011;51875;49.994;14.052;2023-08-12T07:17:59;7.03;;;3.97;;
65275;SDS011;51875;49.994;14.052;2023-08-12T07:19:15;5.25;;;3.60;;
65275;SDS011;51875;49.994;14.052;2023-08-12T07:20:30;4.82;;;3.60;;
65275;SDS011;51875;49.994;14.052;2023-08-12T07:21:46;6.00;;;4.07;;
65275;SDS011;51875;49.994;14.052;2023-08-12T07:23:01;4.57;;;3.97;;
65275;SDS011;51875;49.994;14.052;2023-08-12T07:24:17;5.55;;;3.90;;
65275;SDS011;51875;49.994;14.052;2023-08-12T07:25:33;5.22;;;3.50;;
65275;SDS011;51875;49.994;14.052;2023-08-12T07:26:48;3.75;;;3.38;;
65275;SDS011;51875;49.994;14.052;2023-08-12T07:28:04;4.80;;;3.65;;
65275;SDS011;51875;49.994;14.052;2023-08-12T07:29:20;5.15;;;3.63;;
65275;SDS011;51875;49.994;14.052;2023-08-12T07:30:36;5.68;;;3.83;;
65275;SDS011;51875;49.994;14.052;2023-08-12T07:31:52;4.80;;;3.70;;
65275;SDS011;51875;49.994;14.052;2023-08-12T07:33:07;5.05;;;3.67;;